createdAt,value
2023-03-07T00:01:21.859Z,9.04
2023-03-07T00:03:48.886Z,9.02
2023-03-07T00:06:15.767Z,8.98
2023-03-07T00:08:42.693Z,8.96
2023-03-07T00:11:09.592Z,8.89
2023-03-07T00:13:37.730Z,8.87
2023-03-07T00:16:07.757Z,8.84
2023-03-07T00:18:35.361Z,8.83
2023-03-07T00:21:06.157Z,8.83
2023-03-07T00:23:33.851Z,8.82
2023-03-07T00:26:01.852Z,8.83
2023-03-07T00:28:29.152Z,8.84
2023-03-07T00:30:59.398Z,8.85
2023-03-07T00:33:26.336Z,8.87
2023-03-07T00:35:54.863Z,8.89
2023-03-07T00:38:21.736Z,8.91
2023-03-07T00:40:56.190Z,8.93
2023-03-07T00:43:23.120Z,8.99
2023-03-07T00:45:50.081Z,9.01
2023-03-07T00:48:18.445Z,9.01
2023-03-07T00:50:45.462Z,9.01
2023-03-07T00:53:12.312Z,8.97
2023-03-07T00:55:39.357Z,8.92
2023-03-07T00:58:06.170Z,8.93
2023-03-07T01:00:33.182Z,8.89
2023-03-07T01:03:04.494Z,8.93
2023-03-07T01:05:31.319Z,8.92
2023-03-07T01:07:58.188Z,8.87
2023-03-07T01:10:27.200Z,8.84
2023-03-07T01:12:54.201Z,8.87
2023-03-07T01:15:21.158Z,8.89
2023-03-07T01:17:47.995Z,8.90
2023-03-07T01:20:14.814Z,8.91
2023-03-07T01:22:41.666Z,8.88
2023-03-07T01:25:08.931Z,8.87
2023-03-07T01:27:35.888Z,8.89
2023-03-07T01:30:02.825Z,8.89
2023-03-07T01:32:29.673Z,8.89
2023-03-07T01:34:56.636Z,8.77
2023-03-07T01:37:23.633Z,8.63
2023-03-07T01:39:52.972Z,8.54
2023-03-07T01:42:20.313Z,8.45
2023-03-07T01:44:50.181Z,8.34
2023-03-07T01:47:17.064Z,8.24
2023-03-07T01:49:46.492Z,8.11
2023-03-07T01:52:15.256Z,8.00
2023-03-07T01:54:49.222Z,7.85
2023-03-07T01:57:18.732Z,7.75
2023-03-07T01:59:47.637Z,7.69
2023-03-07T02:02:17.432Z,7.55
2023-03-07T02:04:45.643Z,7.45
2023-03-07T02:07:14.084Z,7.41
2023-03-07T02:09:41.096Z,7.31
2023-03-07T02:12:08.455Z,7.18
2023-03-07T02:14:35.569Z,7.08
2023-03-07T02:17:03.059Z,6.95
2023-03-07T02:19:41.164Z,6.89
2023-03-07T02:22:09.982Z,6.78
2023-03-07T02:24:41.244Z,6.74
2023-03-07T02:27:08.188Z,6.73
2023-03-07T02:29:35.073Z,6.69
2023-03-07T02:32:02.026Z,6.67
2023-03-07T02:34:30.989Z,6.63
2023-03-07T02:37:00.858Z,6.63
2023-03-07T02:39:30.536Z,6.62
2023-03-07T02:42:01.045Z,6.59
2023-03-07T02:44:27.858Z,6.57
2023-03-07T02:46:54.761Z,6.54
2023-03-07T02:49:21.667Z,6.52
2023-03-07T02:51:48.564Z,6.54
2023-03-07T02:54:15.400Z,6.52
2023-03-07T02:56:42.388Z,6.53
2023-03-07T02:59:09.279Z,6.56
2023-03-07T03:01:36.671Z,6.55
2023-03-07T03:04:03.871Z,6.54
2023-03-07T03:06:30.675Z,6.55
2023-03-07T03:08:57.515Z,6.54
2023-03-07T03:11:24.362Z,6.54
2023-03-07T03:13:51.145Z,6.56
2023-03-07T03:16:18.062Z,6.54
2023-03-07T03:18:44.911Z,6.53
2023-03-07T03:21:12.416Z,6.52
2023-03-07T03:23:39.393Z,6.51
2023-03-07T03:26:08.182Z,6.50
2023-03-07T03:28:35.756Z,6.47
2023-03-07T03:31:04.395Z,6.43
2023-03-07T03:33:31.618Z,6.38
2023-03-07T03:35:59.444Z,6.34
2023-03-07T03:38:26.613Z,6.30
2023-03-07T03:40:53.488Z,6.26
2023-03-07T03:43:20.394Z,6.22
2023-03-07T03:45:50.319Z,6.19
2023-03-07T03:48:17.237Z,6.12
2023-03-07T03:50:44.062Z,6.09
2023-03-07T03:53:10.964Z,6.07
2023-03-07T03:55:37.782Z,6.06
2023-03-07T03:58:04.869Z,6.06
2023-03-07T04:00:31.659Z,6.05
2023-03-07T04:02:58.735Z,6.05
2023-03-07T04:05:25.670Z,6.04
2023-03-07T04:07:52.483Z,6.05
2023-03-07T04:10:19.684Z,6.03
2023-03-07T04:12:47.033Z,6.01
2023-03-07T04:15:13.993Z,5.99
2023-03-07T04:17:40.831Z,5.99
2023-03-07T04:20:13.793Z,5.97
2023-03-07T04:22:40.913Z,6.02
2023-03-07T04:25:07.953Z,5.94
2023-03-07T04:27:35.537Z,5.93
2023-03-07T04:30:02.407Z,5.92
2023-03-07T04:32:29.352Z,5.88
2023-03-07T04:34:56.209Z,5.89
2023-03-07T04:37:23.330Z,5.95
2023-03-07T04:39:50.234Z,5.96
2023-03-07T04:42:17.215Z,6.00
2023-03-07T04:44:44.100Z,6.00
2023-03-07T04:47:10.984Z,5.96
2023-03-07T04:49:37.815Z,5.94
2023-03-07T04:52:05.836Z,5.94
2023-03-07T04:54:32.749Z,5.96
2023-03-07T04:56:59.636Z,5.95
2023-03-07T04:59:26.463Z,5.89
2023-03-07T05:01:53.396Z,5.87
2023-03-07T05:04:20.344Z,5.87
2023-03-07T05:06:47.222Z,5.88
2023-03-07T05:09:14.101Z,5.89
2023-03-07T05:11:40.996Z,5.90
2023-03-07T05:14:08.125Z,5.91
2023-03-07T05:16:34.960Z,5.91
2023-03-07T05:19:02.103Z,5.92
2023-03-07T05:21:29.384Z,5.89
2023-03-07T05:23:56.253Z,5.87
2023-03-07T05:26:23.219Z,5.89
2023-03-07T05:28:50.044Z,5.89
2023-03-07T05:31:18.463Z,5.89
2023-03-07T05:33:45.536Z,5.90
2023-03-07T05:36:12.431Z,5.91
2023-03-07T05:38:39.484Z,5.90
2023-03-07T05:41:06.683Z,5.93
2023-03-07T05:43:33.528Z,5.94
2023-03-07T05:46:00.405Z,5.93
2023-03-07T05:48:27.490Z,5.93
2023-03-07T05:50:54.580Z,5.92
2023-03-07T05:53:21.433Z,5.93
2023-03-07T05:55:48.258Z,5.91
2023-03-07T05:58:15.151Z,5.90
2023-03-07T06:00:42.066Z,5.91
2023-03-07T06:03:09.019Z,5.92
2023-03-07T06:05:35.886Z,5.92
2023-03-07T06:08:02.977Z,5.94
2023-03-07T06:10:29.836Z,5.98
2023-03-07T06:12:56.727Z,6.04
2023-03-07T06:15:24.834Z,6.08
2023-03-07T06:17:53.130Z,6.08
2023-03-07T06:20:21.564Z,6.05
2023-03-07T06:22:48.443Z,6.05
2023-03-07T06:25:17.172Z,6.04
2023-03-07T06:27:44.357Z,6.05
2023-03-07T06:30:12.767Z,6.11
2023-03-07T06:32:39.954Z,6.10
2023-03-07T06:35:07.263Z,6.11
2023-03-07T06:37:34.325Z,6.10
2023-03-07T06:40:01.388Z,6.13
2023-03-07T06:42:28.505Z,6.14
2023-03-07T06:44:55.476Z,6.16
2023-03-07T06:47:23.094Z,6.14
2023-03-07T06:49:49.975Z,6.11
2023-03-07T06:52:16.997Z,6.13
2023-03-07T06:54:44.046Z,6.14
2023-03-07T06:57:11.251Z,6.14
2023-03-07T06:59:38.202Z,6.17
2023-03-07T07:02:05.891Z,6.17
2023-03-07T07:04:33.233Z,6.18
2023-03-07T07:07:00.176Z,6.23
2023-03-07T07:09:27.126Z,6.26
2023-03-07T07:11:54.102Z,6.27
2023-03-07T07:14:22.260Z,6.30
2023-03-07T07:16:49.397Z,6.30
2023-03-07T07:19:16.453Z,6.28
2023-03-07T07:21:43.558Z,6.28
2023-03-07T07:24:13.992Z,6.31
2023-03-07T07:26:41.369Z,6.32
2023-03-07T07:29:08.330Z,6.34
2023-03-07T07:31:35.583Z,6.40
2023-03-07T07:34:02.762Z,6.38
2023-03-07T07:36:30.227Z,6.40
2023-03-07T07:38:57.244Z,6.43
2023-03-07T07:41:24.668Z,6.49
2023-03-07T07:43:53.431Z,6.51
2023-03-07T07:46:20.671Z,6.53
2023-03-07T07:48:48.230Z,6.56
2023-03-07T07:51:15.296Z,6.58
2023-03-07T07:53:42.467Z,6.63
2023-03-07T07:56:09.699Z,6.67
2023-03-07T07:58:37.000Z,6.65
2023-03-07T08:01:07.284Z,6.65
2023-03-07T08:03:34.382Z,6.67
2023-03-07T08:06:01.499Z,6.67
2023-03-07T08:08:28.765Z,6.72
2023-03-07T08:10:55.746Z,7.17
2023-03-07T08:13:22.946Z,7.27
2023-03-07T08:15:50.023Z,7.19
2023-03-07T08:18:17.079Z,7.10
2023-03-07T08:20:44.452Z,7.00
2023-03-07T08:23:13.856Z,6.92
2023-03-07T08:25:40.912Z,6.91
2023-03-07T08:28:07.968Z,6.93
2023-03-07T08:30:36.375Z,6.94
2023-03-07T08:33:04.283Z,7.01
2023-03-07T08:35:31.695Z,7.01
2023-03-07T08:38:01.289Z,7.08
2023-03-07T08:40:29.651Z,7.07
2023-03-07T08:42:56.718Z,7.11
2023-03-07T08:45:24.297Z,7.13
2023-03-07T08:47:53.556Z,7.16
2023-03-07T08:50:21.571Z,7.24
2023-03-07T08:52:49.022Z,7.25
2023-03-07T08:55:17.327Z,7.32
2023-03-07T08:57:46.452Z,7.33
2023-03-07T09:00:14.675Z,7.31
2023-03-07T09:02:42.202Z,7.24
2023-03-07T09:05:10.154Z,7.23
2023-03-07T09:07:37.677Z,7.17
2023-03-07T09:10:06.690Z,7.16
2023-03-07T09:12:37.172Z,7.15
2023-03-07T09:15:04.597Z,7.18
2023-03-07T09:17:31.889Z,7.20
2023-03-07T09:19:58.901Z,7.19
2023-03-07T09:22:27.596Z,7.20
2023-03-07T09:24:55.019Z,7.20
2023-03-07T09:27:23.152Z,7.22
2023-03-07T09:29:50.844Z,7.24
2023-03-07T09:32:18.232Z,7.28
2023-03-07T09:34:45.722Z,7.36
2023-03-07T09:37:12.977Z,7.34
2023-03-07T09:39:40.434Z,7.27
2023-03-07T09:42:11.231Z,7.28
2023-03-07T09:44:41.564Z,7.27
2023-03-07T09:47:17.390Z,7.28
2023-03-07T09:49:47.449Z,7.25
2023-03-07T09:52:17.155Z,7.22
2023-03-07T09:54:47.161Z,7.19
2023-03-07T09:57:18.074Z,7.25
2023-03-07T09:59:46.885Z,7.29
2023-03-07T10:02:17.241Z,7.27
2023-03-07T10:04:47.626Z,7.27
2023-03-07T10:07:15.963Z,7.35
2023-03-07T10:09:44.515Z,7.45
2023-03-07T10:12:18.565Z,7.51
2023-03-07T10:14:49.051Z,7.59
2023-03-07T10:17:16.612Z,7.63
2023-03-07T10:19:47.185Z,7.71
2023-03-07T10:22:15.210Z,7.79
2023-03-07T10:24:43.716Z,7.79
2023-03-07T10:27:14.126Z,7.81
2023-03-07T10:29:47.653Z,7.87
2023-03-07T10:32:17.741Z,7.90
2023-03-07T10:34:46.047Z,7.91
2023-03-07T10:37:16.867Z,7.95
2023-03-07T10:39:47.117Z,7.94
2023-03-07T10:42:15.875Z,7.95
2023-03-07T10:44:46.082Z,7.94
2023-03-07T10:47:19.510Z,7.97
2023-03-07T10:49:48.033Z,8.01
2023-03-07T10:52:18.741Z,8.04
2023-03-07T10:54:45.739Z,8.08
2023-03-07T10:57:15.552Z,8.14
2023-03-07T10:59:44.905Z,8.21
2023-03-07T11:02:15.129Z,8.27
2023-03-07T11:04:44.801Z,8.28
2023-03-07T11:07:15.112Z,8.32
2023-03-07T11:09:45.451Z,8.38
2023-03-07T11:12:14.341Z,8.37
2023-03-07T11:14:47.914Z,8.35
2023-03-07T11:17:18.258Z,8.38
2023-03-07T11:19:46.398Z,8.36
2023-03-07T11:22:16.749Z,8.37
2023-03-07T11:24:48.501Z,8.37
2023-03-07T11:27:21.465Z,8.33
2023-03-07T11:30:06.599Z,8.28
2023-03-07T11:32:35.036Z,8.28
2023-03-07T11:35:07.077Z,8.29
2023-03-07T11:37:37.559Z,8.27
2023-03-07T11:40:07.785Z,8.29
2023-03-07T11:42:37.742Z,8.30
2023-03-07T11:45:07.823Z,8.30
2023-03-07T11:47:37.769Z,8.28
2023-03-07T11:50:05.803Z,8.31
2023-03-07T11:52:35.796Z,8.39
2023-03-07T11:55:06.032Z,8.46
2023-03-07T11:57:33.585Z,8.49
2023-03-07T12:00:16.126Z,8.52
2023-03-07T12:02:46.949Z,8.54
2023-03-07T12:05:20.921Z,8.54
2023-03-07T12:07:51.628Z,8.63
2023-03-07T12:10:29.403Z,8.70
2023-03-07T12:13:01.101Z,8.79
2023-03-07T12:15:31.373Z,8.85
2023-03-07T12:18:04.282Z,8.91
2023-03-07T12:20:38.279Z,8.90
2023-03-07T12:23:11.232Z,8.90
2023-03-07T12:25:38.915Z,8.93
2023-03-07T12:28:09.409Z,8.92
2023-03-07T12:30:39.889Z,8.94
2023-03-07T12:33:07.094Z,8.96
2023-03-07T12:35:44.351Z,8.97
2023-03-07T12:38:12.119Z,8.98
2023-03-07T12:40:42.445Z,8.97
2023-03-07T12:43:12.816Z,9.00
2023-03-07T12:45:46.698Z,9.04
2023-03-07T12:48:17.075Z,8.96
2023-03-07T12:50:45.634Z,8.90
2023-03-07T12:53:22.846Z,8.92
2023-03-07T12:55:56.287Z,8.94
2023-03-07T12:58:26.854Z,8.97
2023-03-07T13:00:58.127Z,8.97
2023-03-07T13:03:28.510Z,9.06
2023-03-07T13:05:55.794Z,9.11
2023-03-07T13:08:24.288Z,9.14
2023-03-07T13:10:52.361Z,9.19
2023-03-07T13:13:22.304Z,9.20
2023-03-07T13:15:52.534Z,9.21
2023-03-07T13:18:22.763Z,9.17
2023-03-07T13:21:07.319Z,8.64
2023-03-07T13:23:34.538Z,8.37
2023-03-07T13:26:03.954Z,8.05
2023-03-07T13:28:32.757Z,7.71
2023-03-07T13:31:08.722Z,7.37
2023-03-07T13:33:36.187Z,7.22
2023-03-07T13:36:03.496Z,7.13
2023-03-07T13:38:32.574Z,7.06
2023-03-07T13:41:00.714Z,7.03
2023-03-07T13:43:28.584Z,7.01
2023-03-07T13:45:58.857Z,6.98
2023-03-07T13:48:29.292Z,6.97
2023-03-07T13:50:58.038Z,6.97
2023-03-07T13:53:28.741Z,7.00
2023-03-07T13:55:58.698Z,7.00
2023-03-07T13:58:26.433Z,7.03
2023-03-07T14:00:56.880Z,7.04
2023-03-07T14:03:27.723Z,6.99
2023-03-07T14:05:56.082Z,7.00
2023-03-07T14:08:25.244Z,6.99
2023-03-07T14:10:52.257Z,7.05
2023-03-07T14:13:25.396Z,7.10
2023-03-07T14:15:55.850Z,7.13
2023-03-07T14:18:26.261Z,7.14
2023-03-07T14:20:56.585Z,7.13
2023-03-07T14:23:23.915Z,7.11
2023-03-07T14:25:52.854Z,7.12
2023-03-07T14:28:23.629Z,7.17
2023-03-07T14:30:53.728Z,7.15
2023-03-07T14:33:21.405Z,7.15
2023-03-07T14:35:48.638Z,7.10
2023-03-07T14:38:18.916Z,7.11
2023-03-07T14:40:52.919Z,7.16
2023-03-07T14:43:20.562Z,7.21
2023-03-07T14:45:50.999Z,7.24
2023-03-07T14:48:18.784Z,7.22
2023-03-07T14:50:46.272Z,7.24
2023-03-07T14:53:17.291Z,7.24
2023-03-07T14:55:45.534Z,7.24
2023-03-07T14:58:15.912Z,7.23
2023-03-07T15:00:43.226Z,7.26
2023-03-07T15:03:13.056Z,7.31
2023-03-07T15:05:43.636Z,7.38
2023-03-07T15:08:13.845Z,7.43
2023-03-07T15:10:43.404Z,7.48
2023-03-07T15:13:19.266Z,7.52
2023-03-07T15:15:49.939Z,7.56
2023-03-07T15:18:20.671Z,7.60
2023-03-07T15:20:48.379Z,7.64
2023-03-07T15:23:20.150Z,7.62
2023-03-07T15:25:47.856Z,7.64
2023-03-07T15:28:18.212Z,7.60
2023-03-07T15:30:48.898Z,7.62
2023-03-07T15:33:17.243Z,7.63
2023-03-07T15:35:48.045Z,7.60
2023-03-07T15:38:17.117Z,7.61
2023-03-07T15:40:44.694Z,7.59
2023-03-07T15:43:15.965Z,7.54
2023-03-07T15:45:44.306Z,7.56
2023-03-07T15:48:14.529Z,7.51
2023-03-07T15:50:42.023Z,7.48
2023-03-07T15:53:10.831Z,7.50
2023-03-07T15:55:38.976Z,7.52
2023-03-07T15:58:12.361Z,7.50
2023-03-07T16:00:40.842Z,7.50
2023-03-07T16:03:11.193Z,7.47
2023-03-07T16:05:38.528Z,7.43
2023-03-07T16:08:10.045Z,7.43
2023-03-07T16:10:40.278Z,7.47
2023-03-07T16:13:11.218Z,7.50
2023-03-07T16:15:38.276Z,7.52
2023-03-07T16:18:05.611Z,7.52
2023-03-07T16:20:32.921Z,7.48
2023-03-07T16:23:00.106Z,7.37
2023-03-07T16:25:30.130Z,7.36
2023-03-07T16:27:58.709Z,7.35
2023-03-07T16:30:27.521Z,7.37
2023-03-07T16:32:55.029Z,7.34
2023-03-07T16:35:24.763Z,7.37
2023-03-07T16:37:52.344Z,7.38
2023-03-07T16:40:20.856Z,7.40
2023-03-07T16:42:49.075Z,7.38
2023-03-07T16:45:19.401Z,7.40
2023-03-07T16:47:47.481Z,7.40
2023-03-07T16:50:16.189Z,7.35
2023-03-07T16:52:44.296Z,7.32
2023-03-07T16:55:13.899Z,7.29
2023-03-07T16:57:44.429Z,7.25
2023-03-07T17:00:14.863Z,7.27
2023-03-07T17:02:42.242Z,7.27
2023-03-07T17:05:15.307Z,7.26
2023-03-07T17:07:42.686Z,7.25
2023-03-07T17:10:11.159Z,7.23
2023-03-07T17:12:38.832Z,7.22
2023-03-07T17:15:07.489Z,7.23
2023-03-07T17:17:36.610Z,7.23
2023-03-07T17:20:06.376Z,7.22
2023-03-07T17:22:33.872Z,7.23
2023-03-07T17:25:02.081Z,7.23
2023-03-07T17:27:32.825Z,7.18
2023-03-07T17:30:00.665Z,7.14
2023-03-07T17:32:28.079Z,7.12
2023-03-07T17:34:55.312Z,7.13
2023-03-07T17:37:22.545Z,7.11
2023-03-07T17:39:49.875Z,7.08
2023-03-07T17:42:22.564Z,7.06
2023-03-07T17:44:51.769Z,7.02
2023-03-07T17:47:20.629Z,6.98
2023-03-07T17:49:51.014Z,7.00
2023-03-07T17:52:19.841Z,6.98
2023-03-07T17:54:48.764Z,6.98
2023-03-07T17:57:17.077Z,6.97
2023-03-07T17:59:44.524Z,6.98
2023-03-07T18:02:13.908Z,6.98
2023-03-07T18:04:41.568Z,6.95
2023-03-07T18:07:08.923Z,6.92
2023-03-07T18:09:36.233Z,6.85
2023-03-07T18:12:05.339Z,6.83
2023-03-07T18:14:34.132Z,6.82
2023-03-07T18:17:03.814Z,6.78
2023-03-07T18:19:34.017Z,6.78
2023-03-07T18:22:01.550Z,6.79
2023-03-07T18:24:30.632Z,6.80
2023-03-07T18:26:59.967Z,6.79
2023-03-07T18:29:28.682Z,6.78
2023-03-07T18:31:56.714Z,6.77
2023-03-07T18:34:25.589Z,6.76
2023-03-07T18:36:54.508Z,6.72
2023-03-07T18:39:23.240Z,6.71
2023-03-07T18:41:50.682Z,6.67
2023-03-07T18:44:19.324Z,6.66
2023-03-07T18:46:47.219Z,6.66
2023-03-07T18:49:15.422Z,6.64
2023-03-07T18:51:46.521Z,6.62
2023-03-07T18:54:14.681Z,6.56
2023-03-07T18:56:43.393Z,6.55
2023-03-07T18:59:10.930Z,6.55
2023-03-07T19:01:38.529Z,6.52
2023-03-07T19:04:06.279Z,6.52
2023-03-07T19:06:35.959Z,6.51
2023-03-07T19:09:04.185Z,6.51
2023-03-07T19:11:32.673Z,6.52
2023-03-07T19:14:01.651Z,6.51
2023-03-07T19:16:30.479Z,6.49
2023-03-07T19:19:00.765Z,6.46
2023-03-07T19:21:29.290Z,6.45
2023-03-07T19:23:58.673Z,6.42
2023-03-07T19:26:26.405Z,6.41
2023-03-07T19:28:55.076Z,6.44
2023-03-07T19:31:24.391Z,6.40
2023-03-07T19:33:53.149Z,6.40
2023-03-07T19:36:25.000Z,6.36
2023-03-07T19:38:55.360Z,6.30
2023-03-07T19:41:25.167Z,6.27
2023-03-07T19:43:52.553Z,6.24
2023-03-07T19:46:20.392Z,6.25
2023-03-07T19:48:48.148Z,6.21
2023-03-07T19:51:16.918Z,6.21
2023-03-07T19:53:44.697Z,6.19
2023-03-07T19:56:12.866Z,6.17
2023-03-07T19:58:39.906Z,6.16
2023-03-07T20:01:08.718Z,6.16
2023-03-07T20:03:37.397Z,6.12
2023-03-07T20:06:06.290Z,6.10
2023-03-07T20:08:34.891Z,6.06
2023-03-07T20:11:09.407Z,6.07
2023-03-07T20:13:37.813Z,6.05
2023-03-07T20:16:06.347Z,6.03
2023-03-07T20:18:34.386Z,6.04
2023-03-07T20:21:04.709Z,6.03
2023-03-07T20:23:33.208Z,5.97
2023-03-07T20:26:03.311Z,6.04
2023-03-07T20:28:31.436Z,6.05
2023-03-07T20:31:00.189Z,6.02
2023-03-07T20:33:27.290Z,6.02
2023-03-07T20:35:58.046Z,5.97
2023-03-07T20:38:25.394Z,5.99
2023-03-07T20:40:59.680Z,5.98
2023-03-07T20:43:26.525Z,5.98
2023-03-07T20:45:53.467Z,5.97
2023-03-07T20:48:20.512Z,5.96
2023-03-07T20:50:47.544Z,5.91
2023-03-07T20:53:14.391Z,5.86
2023-03-07T20:55:41.232Z,5.83
2023-03-07T20:58:08.348Z,5.80
2023-03-07T21:00:35.239Z,5.84
2023-03-07T21:03:05.965Z,5.82
2023-03-07T21:05:33.115Z,5.80
2023-03-07T21:08:00.180Z,5.76
2023-03-07T21:10:27.866Z,5.76
2023-03-07T21:12:54.781Z,5.73
2023-03-07T21:15:21.703Z,5.72
2023-03-07T21:17:51.232Z,5.68
2023-03-07T21:20:19.001Z,5.67
2023-03-07T21:22:48.264Z,5.67
2023-03-07T21:25:15.891Z,5.71
2023-03-07T21:27:48.134Z,5.72
2023-03-07T21:30:19.148Z,5.72
2023-03-07T21:32:46.299Z,5.74
2023-03-07T21:35:14.265Z,5.74
2023-03-07T21:37:42.653Z,5.76
2023-03-07T21:40:11.000Z,5.78
2023-03-07T21:42:38.792Z,5.81
2023-03-07T21:45:06.766Z,5.85
2023-03-07T21:47:38.030Z,5.88
2023-03-07T21:50:06.297Z,5.89
2023-03-07T21:52:33.907Z,5.91
2023-03-07T21:55:01.264Z,5.94
2023-03-07T21:57:30.163Z,5.94
2023-03-07T21:59:57.870Z,5.95
2023-03-07T22:02:24.862Z,5.96
2023-03-07T22:04:51.762Z,5.97
2023-03-07T22:07:18.882Z,6.02
2023-03-07T22:09:45.712Z,6.05
2023-03-07T22:12:12.503Z,6.06
2023-03-07T22:14:39.647Z,6.07
2023-03-07T22:17:06.427Z,6.06
2023-03-07T22:19:33.201Z,6.07
2023-03-07T22:22:00.018Z,6.07
2023-03-07T22:24:27.125Z,6.05
2023-03-07T22:26:54.027Z,6.05
2023-03-07T22:29:20.987Z,6.05
2023-03-07T22:31:48.097Z,6.05
2023-03-07T22:34:14.974Z,6.06
2023-03-07T22:36:42.035Z,6.06
2023-03-07T22:39:10.065Z,6.00
2023-03-07T22:41:37.317Z,5.98
2023-03-07T22:44:04.994Z,5.97
2023-03-07T22:46:31.796Z,5.93
2023-03-07T22:48:58.896Z,5.93
2023-03-07T22:51:26.111Z,5.94
2023-03-07T22:53:53.363Z,5.94
2023-03-07T22:56:23.406Z,5.94
2023-03-07T22:58:50.272Z,5.95
2023-03-07T23:01:20.349Z,5.94
2023-03-07T23:03:47.987Z,5.92
2023-03-07T23:06:14.998Z,5.91
2023-03-07T23:08:45.538Z,5.95
2023-03-07T23:11:13.222Z,5.95
2023-03-07T23:13:40.413Z,5.99
2023-03-07T23:16:09.244Z,5.96
2023-03-07T23:18:37.004Z,5.98
2023-03-07T23:21:06.813Z,5.94
2023-03-07T23:23:34.027Z,5.92
2023-03-07T23:26:01.212Z,5.93
2023-03-07T23:28:28.308Z,5.92
2023-03-07T23:30:55.477Z,5.94
2023-03-07T23:33:22.491Z,5.94
2023-03-07T23:35:49.337Z,5.95
2023-03-07T23:38:16.428Z,5.96
2023-03-07T23:40:43.532Z,5.96
2023-03-07T23:43:12.996Z,6.00
2023-03-07T23:45:39.959Z,6.03
2023-03-07T23:48:06.741Z,6.01
2023-03-07T23:50:33.518Z,6.00
2023-03-07T23:53:00.444Z,6.01
2023-03-07T23:55:27.338Z,6.03
2023-03-07T23:57:54.188Z,6.03
